Time;durP1;ratioP1;P1;durP2;ratioP2;P2;SDS_P1;SDS_P2;PMS_P1;PMS_P2;Temp;Humidity;BMP_temperature;BMP_pressure;BME280_temperature;BME280_humidity;BME280_pressure;Samples;Min_cycle;Max_cycle;Signal;HPM_P1;HPM_P2
2022/09/18 00:00:39;;;;;;;;;;;;;;;19.64;50.87;99815.66;2283307;75;51026;-78
2022/09/18 00:03:41;;;;;;;;;;;;;;;19.65;50.86;99816.47;2317619;76;50402;-78
2022/09/18 00:06:43;;;;;;;;;;;;;;;19.64;50.89;99813.49;2324671;75;51680;-78
2022/09/18 00:09:45;;;;;;;;;;;;;;;19.65;50.88;99813.78;2314249;75;50750;-78
2022/09/18 00:12:46;;;;;;;;;;;;;;;19.64;50.90;99820.20;2293974;76;49587;-78
2022/09/18 00:15:49;;;;;;;;;;;;;;;19.63;50.88;99819.91;2292863;76;50241;-78
2022/09/18 00:18:51;;;;;;;;;;;;;;;19.64;50.87;99819.68;2291194;76;50329;-78
2022/09/18 00:21:53;;;;;;;;;;;;;;;19.64;50.87;99816.17;2311477;76;50670;-78
2022/09/18 00:24:54;;;;;;;;;;;;;;;19.62;50.86;99820.92;2311325;76;49610;-77
2022/09/18 00:27:56;;;;;;;;;;;;;;;19.64;50.85;99825.57;2297262;77;51463;-78
2022/09/18 00:31:04;;;;;;;;;;;;;;;19.64;50.77;99832.28;2311486;76;50166;-78
2022/09/18 00:34:07;;;;;;;;;;;;;;;19.62;50.80;99823.08;2311252;76;51860;-79
2022/09/18 00:37:09;;;;;;;;;;;;;;;19.60;50.88;99826.52;2285294;77;50142;-78
2022/09/18 00:40:10;;;;;;;;;;;;;;;19.63;50.85;99822.59;2311590;76;50299;-79
2022/09/18 00:43:18;;;;;;;;;;;;;;;19.62;50.87;99821.73;2297372;76;50271;-78
2022/09/18 00:46:28;;;;;;;;;;;;;;;19.63;50.79;99827.44;2314204;76;50765;-78
2022/09/18 00:49:29;;;;;;;;;;;;;;;19.63;50.81;99824.75;2309736;76;50133;-78
2022/09/18 00:52:36;;;;;;;;;;;;;;;19.61;50.85;99828.68;2319011;76;50746;-78
2022/09/18 00:55:37;;;;;;;;;;;;;;;19.62;50.82;99835.16;2318821;76;50389;-78
2022/09/18 00:58:39;;;;;;;;;;;;;;;19.62;50.82;99828.45;2319084;76;50772;-78
2022/09/18 01:01:41;;;;;;;;;;;;;;;19.60;50.85;99833.23;2323243;76;50098;-78
2022/09/18 01:04:42;;;;;;;;;;;;;;;19.59;50.86;99828.35;2318820;76;51623;-79
2022/09/18 01:07:49;;;;;;;;;;;;;;;19.61;50.86;99830.02;2319168;76;50261;-78
2022/09/18 01:10:52;;;;;;;;;;;;;;;19.63;50.83;99835.48;2317963;76;50427;-78
2022/09/18 01:13:55;;;;;;;;;;;;;;;19.59;50.86;99828.88;2292019;76;51321;-78
2022/09/18 01:17:14;;;;;;;;;;;;;;;19.59;50.90;99834.24;2301360;76;50418;-78
2022/09/18 01:20:18;;;;;;;;;;;;;;;19.60;50.84;99835.91;2285488;77;51509;-78
2022/09/18 01:23:38;;;;;;;;;;;;;;;19.59;50.86;99827.53;2287278;78;51488;-79
2022/09/18 01:26:44;;;;;;;;;;;;;;;19.59;50.85;99834.24;2286771;77;52589;-78
2022/09/18 01:29:57;;;;;;;;;;;;;;;19.58;50.83;99835.29;2287292;78;51773;-78
2022/09/18 01:33:00;;;;;;;;;;;;;;;19.61;50.84;99834.05;2287412;78;50312;-78
2022/09/18 01:36:02;;;;;;;;;;;;;;;19.58;50.85;99835.29;2286072;77;50474;-78
2022/09/18 01:39:06;;;;;;;;;;;;;;;19.58;50.85;99829.92;2286640;77;50126;-78
2022/09/18 01:42:08;;;;;;;;;;;;;;;19.59;50.84;99833.72;2287477;78;50264;-78
2022/09/18 01:45:10;;;;;;;;;;;;;;;19.57;50.86;99829.59;2287666;78;50196;-78
2022/09/18 01:48:13;;;;;;;;;;;;;;;19.54;50.85;99843.44;2295662;76;51497;-78
2022/09/18 01:51:19;;;;;;;;;;;;;;;19.55;50.89;99840.55;2293600;76;52845;-78
2022/09/18 01:54:24;;;;;;;;;;;;;;;19.57;50.85;99846.55;2318254;76;22477;-79
2022/09/18 01:57:27;;;;;;;;;;;;;;;19.57;50.85;99858.63;2317739;76;50768;-79
2022/09/18 02:00:30;;;;;;;;;;;;;;;19.54;50.83;99845.59;2316580;76;51699;-78
2022/09/18 02:03:33;;;;;;;;;;;;;;;19.53;50.83;99845.83;2319497;76;49746;-78
2022/09/18 02:06:39;;;;;;;;;;;;;;;19.55;50.88;99846.45;2317930;76;50810;-78
2022/09/18 02:09:41;;;;;;;;;;;;;;;19.52;50.81;99852.20;2317888;76;51549;-79
2022/09/18 02:12:43;;;;;;;;;;;;;;;19.53;50.86;99845.83;2317938;76;51505;-78
2022/09/18 02:15:45;;;;;;;;;;;;;;;19.53;50.85;99845.83;2318794;76;50994;-78
2022/09/18 02:18:48;;;;;;;;;;;;;;;19.52;50.81;99851.72;2297666;76;50782;-78
2022/09/18 02:21:49;;;;;;;;;;;;;;;19.55;50.82;99857.18;2317761;76;51631;-78
2022/09/18 02:24:51;;;;;;;;;;;;;;;19.53;50.84;99852.01;2317592;76;51452;-78
2022/09/18 02:27:53;;;;;;;;;;;;;;;19.56;50.80;99856.95;2319745;76;50999;-77
2022/09/18 02:30:54;;;;;;;;;;;;;;;19.54;50.82;99858.19;2317714;76;51530;-78
2022/09/18 02:33:56;;;;;;;;;;;;;;;19.56;50.77;99865.53;2317709;76;50712;-78
2022/09/18 02:36:59;;;;;;;;;;;;;;;19.53;50.83;99849.84;2317571;76;51506;-77
2022/09/18 02:40:18;;;;;;;;;;;;;;;19.52;50.83;99859.77;2293823;76;51082;-79
2022/09/18 02:43:27;;;;;;;;;;;;;;;19.55;50.80;99857.18;2317775;76;50526;-78
2022/09/18 02:46:42;;;;;;;;;;;;;;;19.51;50.82;99861.30;2317771;76;51543;-78
2022/09/18 02:49:58;;;;;;;;;;;;;;;19.52;50.81;99865.13;2295622;76;50394;-77
2022/09/18 02:53:07;;;;;;;;;;;;;;;19.51;50.82;99858.09;2317866;76;52311;-78
2022/09/18 02:56:10;;;;;;;;;;;;;;;19.50;50.83;99861.82;2275103;76;50826;-78
2022/09/18 02:59:13;;;;;;;;;;;;;;;19.51;50.82;99859.96;2317836;76;50467;-78
2022/09/18 03:02:15;;;;;;;;;;;;;;;19.53;50.75;99863.27;2317942;76;50844;-78
2022/09/18 03:05:17;;;;;;;;;;;;;;;19.54;50.77;99870.27;2317343;76;50716;-78
2022/09/18 03:08:18;;;;;;;;;;;;;;;19.51;50.79;99863.98;2283310;75;49510;-78
2022/09/18 03:11:20;;;;;;;;;;;;;;;19.50;50.83;99875.77;2317910;76;50341;-78
2022/09/18 03:14:21;;;;;;;;;;;;;;;19.50;50.85;99870.40;2317694;76;50709;-78
2022/09/18 03:17:23;;;;;;;;;;;;;;;19.50;50.80;99867.19;2300203;75;51777;-78
2022/09/18 03:20:25;;;;;;;;;;;;;;;19.51;50.79;99873.38;2327943;75;50957;-78
2022/09/18 03:23:26;;;;;;;;;;;;;;;19.47;50.79;99878.34;2297206;77;51488;-78
2022/09/18 03:26:28;;;;;;;;;;;;;;;19.47;50.83;99875.66;2297308;77;51637;-77
2022/09/18 03:29:29;;;;;;;;;;;;;;;19.48;50.80;99886.69;2311690;76;51021;-78
2022/09/18 03:32:31;;;;;;;;;;;;;;;19.47;50.80;99890.42;2297354;77;51563;-78
2022/09/18 03:35:33;;;;;;;;;;;;;;;19.48;50.80;99891.23;2311304;76;53190;-77
2022/09/18 03:38:36;;;;;;;;;;;;;;;19.48;50.80;99892.58;2311816;76;50731;-78
2022/09/18 03:41:37;;;;;;;;;;;;;;;19.47;50.76;99898.47;2311804;76;22454;-78
2022/09/18 03:44:39;;;;;;;;;;;;;;;19.49;50.75;99904.42;2285229;77;51498;-78
2022/09/18 03:47:41;;;;;;;;;;;;;;;19.50;50.74;99903.94;2310944;76;51569;-78
2022/09/18 03:50:42;;;;;;;;;;;;;;;19.49;50.77;99908.45;2258754;76;51558;-79
2022/09/18 03:53:44;;;;;;;;;;;;;;;19.48;50.75;99912.18;2250820;79;51343;-78
2022/09/18 03:56:46;;;;;;;;;;;;;;;19.49;50.77;99919.70;2250950;79;50162;-78
2022/09/18 03:59:48;;;;;;;;;;;;;;;19.45;50.77;99915.80;2250969;79;50445;-78
2022/09/18 04:02:49;;;;;;;;;;;;;;;19.45;50.78;99911.26;2250964;79;50389;-78
2022/09/18 04:05:51;;;;;;;;;;;;;;;19.46;50.78;99917.44;2237062;79;49581;-78
2022/09/18 04:08:52;;;;;;;;;;;;;;;19.47;50.74;99916.40;2251088;79;50274;-78
2022/09/18 04:11:54;;;;;;;;;;;;;;;19.47;50.77;99918.59;2251209;79;50254;-78
2022/09/18 04:14:56;;;;;;;;;;;;;;;19.47;50.77;99925.78;2262166;77;51518;-78
2022/09/18 04:17:57;;;;;;;;;;;;;;;19.46;50.76;99922.28;2314164;75;50133;-78
2022/09/18 04:20:59;;;;;;;;;;;;;;;19.45;50.77;99924.67;2374083;75;50365;-78
2022/09/18 04:24:00;;;;;;;;;;;;;;;19.44;50.76;99924.86;2374551;74;50352;-78
2022/09/18 04:27:07;;;;;;;;;;;;;;;19.46;50.75;99928.17;2374284;74;51418;-78
2022/09/18 04:30:05;;;;;;;;;;;;;;;19.46;50.75;99928.17;2373757;74;22344;-78
2022/09/18 04:33:07;;;;;;;;;;;;;;;19.45;50.71;99943.97;2374538;75;50696;-79
2022/09/18 04:36:09;;;;;;;;;;;;;;;19.45;50.75;99943.97;2374027;74;53667;-77
2022/09/18 04:39:11;;;;;;;;;;;;;;;19.46;50.72;99946.95;2374693;75;50287;-78
2022/09/18 04:42:13;;;;;;;;;;;;;;;19.46;50.68;99942.93;2374694;75;51516;-77
2022/09/18 04:45:14;;;;;;;;;;;;;;;19.46;50.73;99944.27;2374253;75;50413;-77
2022/09/18 04:48:16;;;;;;;;;;;;;;;19.47;50.69;99941.89;2300255;75;51564;-79
2022/09/18 04:51:18;;;;;;;;;;;;;;;19.46;50.73;99948.30;2317749;76;51584;-77
2022/09/18 04:54:19;;;;;;;;;;;;;;;19.44;50.68;99941.78;2291455;76;50965;-78
2022/09/18 04:57:21;;;;;;;;;;;;;;;19.45;50.72;99953.37;2317492;76;53568;-78
2022/09/18 05:00:23;;;;;;;;;;;;;;;19.45;50.71;99952.02;2317910;76;51477;-79
2022/09/18 05:03:24;;;;;;;;;;;;;;;19.44;50.72;99957.06;2317853;76;51483;-78
2022/09/18 05:06:26;;;;;;;;;;;;;;;19.43;50.70;99958.10;2319920;76;49614;-76
2022/09/18 05:09:27;;;;;;;;;;;;;;;19.43;50.73;99964.29;2317750;76;50460;-78
2022/09/18 05:12:29;;;;;;;;;;;;;;;19.44;50.73;99965.11;2317926;76;50437;-76
2022/09/18 05:15:30;;;;;;;;;;;;;;;19.44;50.68;99967.27;2315440;76;50372;-78
2022/09/18 05:18:32;;;;;;;;;;;;;;;19.43;50.70;99967.49;2295126;75;50052;-78
2022/09/18 05:21:34;;;;;;;;;;;;;;;19.43;50.67;99973.68;2317989;76;51604;-78
2022/09/18 05:24:35;;;;;;;;;;;;;;;19.42;50.71;99967.16;2317748;76;51514;-78
2022/09/18 05:27:38;;;;;;;;;;;;;;;19.43;50.69;99975.55;2318133;76;51622;-77
2022/09/18 05:30:39;;;;;;;;;;;;;;;19.42;50.71;99968.50;2319859;76;49814;-78
2022/09/18 05:33:41;;;;;;;;;;;;;;;19.44;50.64;99966.45;2317948;76;50624;-79
2022/09/18 05:36:42;;;;;;;;;;;;;;;19.42;50.63;99970.70;2296165;76;50579;-78
2022/09/18 05:39:44;;;;;;;;;;;;;;;19.42;50.68;99975.22;2313379;76;51470;-78
2022/09/18 05:42:46;;;;;;;;;;;;;;;19.43;50.64;99979.56;2283476;76;50088;-78
2022/09/18 05:45:48;;;;;;;;;;;;;;;19.41;50.61;99991.83;2317360;76;50704;-77
2022/09/18 05:48:49;;;;;;;;;;;;;;;19.44;50.63;99997.30;2317669;76;50396;-76
2022/09/18 05:51:51;;;;;;;;;;;;;;;19.43;50.63;99997.83;2317524;76;51600;-78
2022/09/18 05:54:52;;;;;;;;;;;;;;;19.42;50.63;100005.58;2283387;76;51214;-80
2022/09/18 05:57:54;;;;;;;;;;;;;;;19.42;50.63;100004.23;2292734;76;50357;-78
2022/09/18 06:00:57;;;;;;;;;;;;;;;19.43;50.62;99999.69;2318004;76;51497;-78
2022/09/18 06:04:01;;;;;;;;;;;;;;;19.44;50.58;100006.17;2317847;76;51536;-78
2022/09/18 06:07:02;;;;;;;;;;;;;;;19.46;50.56;100003.30;2298673;75;22511;-79
2022/09/18 06:10:04;;;;;;;;;;;;;;;19.45;50.63;100007.84;2347861;75;50628;-79
2022/09/18 06:13:09;;;;;;;;;;;;;;;19.50;50.57;100011.27;2374659;75;50378;-78
2022/09/18 06:16:11;;;;;;;;;;;;;;;19.51;50.53;100011.56;2347728;75;51481;-79
2022/09/18 06:19:12;;;;;;;;;;;;;;;19.58;50.50;100011.06;2321672;75;52452;-79
2022/09/18 06:22:14;;;;;;;;;;;;;;;19.56;50.48;100010.44;2374777;75;50391;-79
2022/09/18 06:25:18;;;;;;;;;;;;;;;19.61;50.44;100009.30;2374470;74;50388;-79
2022/09/18 06:28:19;;;;;;;;;;;;;;;19.64;50.34;100008.88;2374905;75;22386;-79
2022/09/18 06:31:20;;;;;;;;;;;;;;;19.67;50.38;100007.16;2293722;76;50005;-77
2022/09/18 06:34:22;;;;;;;;;;;;;;;19.70;50.39;100013.45;2298080;76;51529;-77
2022/09/18 06:37:23;;;;;;;;;;;;;;;19.65;50.60;100022.63;2271968;77;51821;-77
2022/09/18 06:40:25;;;;;;;;;;;;;;;19.64;50.64;100016.94;2330047;74;51507;-79
2022/09/18 06:43:27;;;;;;;;;;;;;;;19.65;50.63;100025.31;2313129;75;51732;-78
2022/09/18 06:46:28;;;;;;;;;;;;;;;19.68;50.58;100028.11;2374900;75;51494;-77
2022/09/18 06:49:30;;;;;;;;;;;;;;;19.63;50.69;100022.01;2374413;75;51572;-77
2022/09/18 06:52:31;;;;;;;;;;;;;;;19.69;50.58;100034.63;2374319;75;51485;-77
2022/09/18 06:55:33;;;;;;;;;;;;;;;19.68;50.72;100026.27;2281876;76;50322;-77
2022/09/18 06:58:35;;;;;;;;;;;;;;;19.65;50.82;100034.71;2289083;77;50287;-77
2022/09/18 07:01:36;;;;;;;;;;;;;;;19.64;50.94;100036.25;2314240;77;50088;-76
2022/09/18 07:04:38;;;;;;;;;;;;;;;19.65;50.81;100037.39;2314073;77;50409;-77
2022/09/18 07:07:40;;;;;;;;;;;;;;;19.68;50.82;100038.35;2246056;77;51080;-77
2022/09/18 07:10:42;;;;;;;;;;;;;;;19.73;50.60;100045.77;2312378;76;50393;-77
2022/09/18 07:13:44;;;;;;;;;;;;;;;19.74;50.61;100049.59;2263746;76;50136;-77
2022/09/18 07:16:45;;;;;;;;;;;;;;;19.76;50.60;100040.02;2250781;79;51544;-77
2022/09/18 07:19:47;;;;;;;;;;;;;;;19.78;50.50;100040.61;2261810;78;52454;-77
2022/09/18 07:22:53;;;;;;;;;;;;;;;19.82;50.41;100047.75;2250751;79;51414;-78
2022/09/18 07:25:54;;;;;;;;;;;;;;;19.84;50.45;100040.33;2250447;79;50277;-77
2022/09/18 07:28:56;;;;;;;;;;;;;;;19.86;50.37;100047.63;2251122;79;51482;-77
2022/09/18 07:31:58;;;;;;;;;;;;;;;19.86;50.39;100042.27;2262293;78;51115;-79
2022/09/18 07:34:59;;;;;;;;;;;;;;;19.80;50.46;100043.39;2250950;79;50861;-76
2022/09/18 07:38:01;;;;;;;;;;;;;;;19.83;50.21;100049.39;2250812;79;51566;-76
2022/09/18 07:41:03;;;;;;;;;;;;;;;19.81;50.49;100054.98;2272784;76;50267;-78
2022/09/18 07:44:05;;;;;;;;;;;;;;;19.82;50.35;100053.94;2254077;76;49498;-78
2022/09/18 07:47:06;;;;;;;;;;;;;;;19.84;50.34;100047.86;2292286;76;50220;-76
2022/09/18 07:50:14;;;;;;;;;;;;;;;19.86;50.27;100048.48;2317808;76;50257;-78
2022/09/18 07:53:11;;;;;;;;;;;;;;;19.80;50.37;100042.05;2291946;76;22377;-78
2022/09/18 07:56:13;;;;;;;;;;;;;;;19.85;50.20;100044.13;2319988;76;51403;-79
2022/09/18 07:59:14;;;;;;;;;;;;;;;19.87;50.11;100052.81;2292868;76;50716;-76
2022/09/18 08:02:16;;;;;;;;;;;;;;;19.89;50.07;100054.78;2317754;76;51459;-77
2022/09/18 08:05:17;;;;;;;;;;;;;;;19.88;50.13;100053.63;2313859;76;52246;-76
2022/09/18 08:08:19;;;;;;;;;;;;;;;19.91;50.07;100046.01;2315941;76;49599;-77
2022/09/18 08:11:21;;;;;;;;;;;;;;;19.90;50.04;100055.59;2290679;76;50389;-77
2022/09/18 08:14:22;;;;;;;;;;;;;;;19.92;50.03;100048.17;2325743;76;51535;-78
2022/09/18 08:17:24;;;;;;;;;;;;;;;19.91;49.96;100055.90;2291074;76;51600;-77
2022/09/18 08:20:26;;;;;;;;;;;;;;;19.88;50.09;100059.82;2250097;76;52583;-77
2022/09/18 08:23:28;;;;;;;;;;;;;;;19.87;50.15;100057.36;2290932;76;51300;-77
2022/09/18 08:26:30;;;;;;;;;;;;;;;19.85;50.26;100050.84;2290715;76;51657;-77
2022/09/18 08:29:31;;;;;;;;;;;;;;;19.89;50.11;100052.61;2325655;76;50685;-77
2022/09/18 08:32:33;;;;;;;;;;;;;;;19.87;50.16;100038.56;2242403;75;52872;-77
2022/09/18 08:35:34;;;;;;;;;;;;;;;19.84;50.25;100041.67;2313808;75;49673;-77
2022/09/18 08:38:36;;;;;;;;;;;;;;;19.82;50.19;100047.75;2301276;76;51542;-77
2022/09/18 08:41:51;;;;;;;;;;;;;;;19.83;50.30;100048.05;2260085;78;50676;-77
2022/09/18 08:44:54;;;;;;;;;;;;;;;19.83;50.25;100048.05;2261162;77;51919;-77
2022/09/18 08:47:57;;;;;;;;;;;;;;;19.82;50.25;100050.44;2287330;78;51567;-78
2022/09/18 08:50:59;;;;;;;;;;;;;;;19.80;50.22;100058.69;2285563;78;51505;-77
2022/09/18 08:54:03;;;;;;;;;;;;;;;19.80;50.33;100052.80;2287232;78;50305;-79
2022/09/18 08:57:06;;;;;;;;;;;;;;;19.78;50.35;100044.14;2285233;78;50457;-77
2022/09/18 09:00:18;;;;;;;;;;;;;;;19.78;50.40;100041.95;2285418;78;50461;-77
2022/09/18 09:03:21;;;;;;;;;;;;;;;19.79;50.39;100044.44;2286968;78;50785;-78
2022/09/18 09:06:25;;;;;;;;;;;;;;;19.80;50.32;100046.61;2296397;76;50285;-78
2022/09/18 09:09:31;;;;;;;;;;;;;;;19.79;50.34;100041.75;2277836;76;51122;-79
2022/09/18 09:12:52;;;;;;;;;;;;;;;19.77;50.36;100042.99;2326566;75;51447;-78
2022/09/18 09:16:15;;;;;;;;;;;;;;;19.78;50.35;100041.46;2325446;76;50480;-77
2022/09/18 09:19:25;;;;;;;;;;;;;;;19.78;50.31;100041.46;2325624;76;51533;-77
2022/09/18 09:22:28;;;;;;;;;;;;;;;19.78;50.31;100043.29;2292307;76;50154;-77
2022/09/18 09:25:31;;;;;;;;;;;;;;;19.78;50.31;100041.95;2325433;76;50640;-77
2022/09/18 09:28:52;;;;;;;;;;;;;;;19.76;50.34;100038.14;2325521;75;50782;-78
2022/09/18 09:31:54;;;;;;;;;;;;;;;19.76;50.39;100044.03;2325592;76;50698;-77
2022/09/18 09:34:57;;;;;;;;;;;;;;;19.75;50.35;100039.16;2317573;76;51007;-78
2022/09/18 09:37:59;;;;;;;;;;;;;;;19.75;50.35;100035.13;2272124;75;51510;-79
2022/09/18 09:41:03;;;;;;;;;;;;;;;19.74;50.36;100032.16;2374495;75;51561;-78
2022/09/18 09:44:24;;;;;;;;;;;;;;;19.73;50.37;100034.54;2374012;75;50912;-79
2022/09/18 09:47:45;;;;;;;;;;;;;;;19.73;50.38;100039.05;2321117;75;51442;-78
2022/09/18 09:50:55;;;;;;;;;;;;;;;19.73;50.38;100034.54;2374539;75;50534;-77
2022/09/18 09:53:58;;;;;;;;;;;;;;;19.73;50.36;100024.29;2374259;75;51662;-78
2022/09/18 09:57:01;;;;;;;;;;;;;;;19.71;50.42;100033.91;2374524;74;50534;-77
2022/09/18 10:00:11;;;;;;;;;;;;;;;19.71;50.40;100031.75;2348906;74;51408;-77
2022/09/18 10:03:14;;;;;;;;;;;;;;;19.69;50.45;100038.65;2374727;74;22481;-78
2022/09/18 10:06:34;;;;;;;;;;;;;;;19.68;50.45;100034.33;2363295;75;51355;-78
2022/09/18 10:09:40;;;;;;;;;;;;;;;19.68;50.45;100044.21;2311754;75;51640;-78
2022/09/18 10:12:46;;;;;;;;;;;;;;;19.68;50.44;100038.35;2317786;76;51515;-78
2022/09/18 10:15:48;;;;;;;;;;;;;;;19.67;50.47;100036.69;2293890;76;52547;-78
2022/09/18 10:18:50;;;;;;;;;;;;;;;19.66;50.48;100033.67;2318458;76;50777;-78
2022/09/18 10:21:52;;;;;;;;;;;;;;;19.65;50.50;100037.39;2297078;76;51531;-79
2022/09/18 10:24:59;;;;;;;;;;;;;;;19.65;50.52;100036.05;2319996;76;51292;-78
2022/09/18 10:28:01;;;;;;;;;;;;;;;19.65;50.46;100042.77;2318428;76;51833;-78
2022/09/18 10:31:04;;;;;;;;;;;;;;;19.68;50.43;100038.35;2293004;76;51503;-78
2022/09/18 10:34:06;;;;;;;;;;;;;;;19.68;50.40;100037.50;2320106;76;50703;-78
2022/09/18 10:37:18;;;;;;;;;;;;;;;19.66;50.43;100039.03;2312501;76;50741;-77
2022/09/18 10:40:30;;;;;;;;;;;;;;;19.66;50.45;100020.25;2268673;78;52793;-76
2022/09/18 10:43:31;;;;;;;;;;;;;;;19.65;50.46;100019.95;2287241;78;51440;-76
2022/09/18 10:46:34;;;;;;;;;;;;;;;19.65;50.48;100023.13;2287541;77;51528;-76
2022/09/18 10:49:39;;;;;;;;;;;;;;;19.64;50.50;100024.17;2289724;78;50715;-77
2022/09/18 10:52:48;;;;;;;;;;;;;;;19.64;50.49;100016.12;2279785;78;22058;-76
2022/09/18 10:55:50;;;;;;;;;;;;;;;19.64;50.47;100016.94;2286328;77;50776;-77
2022/09/18 10:58:51;;;;;;;;;;;;;;;19.65;50.44;100021.78;2287402;78;50342;-77
2022/09/18 11:01:56;;;;;;;;;;;;;;;19.64;50.46;100021.48;2287438;78;50696;-77
2022/09/18 11:04:58;;;;;;;;;;;;;;;19.63;50.47;100034.61;2286624;77;51387;-77
2022/09/18 11:08:00;;;;;;;;;;;;;;;19.62;50.47;100029.73;2275065;76;50004;-78
2022/09/18 11:11:03;;;;;;;;;;;;;;;19.62;50.48;100018.99;2314490;77;51573;-78
2022/09/18 11:14:05;;;;;;;;;;;;;;;19.63;50.46;100011.80;2314233;77;50506;-77
2022/09/18 11:17:07;;;;;;;;;;;;;;;19.65;50.43;100009.22;2316573;76;50904;-77
2022/09/18 11:20:10;;;;;;;;;;;;;;;19.63;50.43;99995.17;2314569;77;51523;-77
2022/09/18 11:23:15;;;;;;;;;;;;;;;19.62;50.48;100002.89;2314461;76;51628;-78
2022/09/18 11:26:22;;;;;;;;;;;;;;;19.62;50.47;100000.20;2314508;77;52572;-78
2022/09/18 11:29:30;;;;;;;;;;;;;;;19.62;50.46;100012.28;2289692;77;51424;-78
2022/09/18 11:32:34;;;;;;;;;;;;;;;19.61;50.48;100033.45;2289606;76;50504;-78
2022/09/18 11:35:36;;;;;;;;;;;;;;;19.59;50.52;100024.78;2327423;75;22290;-78
2022/09/18 11:38:39;;;;;;;;;;;;;;;19.59;50.50;100014.05;2322234;75;50291;-78
2022/09/18 11:41:41;;;;;;;;;;;;;;;19.57;50.51;100017.44;2307153;76;52692;-78
2022/09/18 11:44:42;;;;;;;;;;;;;;;19.59;50.50;100020.23;2305554;76;50709;-78
2022/09/18 11:47:48;;;;;;;;;;;;;;;19.61;50.49;100016.02;2280039;77;50393;-78
2022/09/18 11:50:51;;;;;;;;;;;;;;;19.62;50.45;100008.26;2280150;76;51587;-78
2022/09/18 11:53:56;;;;;;;;;;;;;;;19.63;50.44;100001.88;2305500;76;52730;-78
2022/09/18 11:57:01;;;;;;;;;;;;;;;19.61;50.46;100000.43;2280058;76;22460;-77
2022/09/18 12:00:10;;;;;;;;;;;;;;;19.62;50.43;100004.23;2279154;77;51501;-78
2022/09/18 12:03:22;;;;;;;;;;;;;;;19.63;50.40;99993.83;2279193;78;51635;-78
2022/09/18 12:06:25;;;;;;;;;;;;;;;19.63;50.38;99984.95;2265075;76;52533;-78
2022/09/18 12:09:28;;;;;;;;;;;;;;;19.65;50.29;99989.09;2250821;78;51493;-77
2022/09/18 12:12:31;;;;;;;;;;;;;;;19.64;50.34;99988.75;2250435;77;51416;-78
2022/09/18 12:15:33;;;;;;;;;;;;;;;19.65;50.31;99979.69;2250599;77;51529;-78
2022/09/18 12:18:37;;;;;;;;;;;;;;;19.67;50.21;99987.03;2261743;78;51751;-77
2022/09/18 12:21:46;;;;;;;;;;;;;;;19.65;50.29;100004.34;2251718;76;50343;-77
2022/09/18 12:24:47;;;;;;;;;;;;;;;19.64;50.37;100003.52;2250604;79;50217;-77
2022/09/18 12:27:57;;;;;;;;;;;;;;;19.62;50.37;99996.18;2250954;79;50747;-77
2022/09/18 12:31:06;;;;;;;;;;;;;;;19.61;50.43;99993.20;2257040;77;52738;-77
2022/09/18 12:34:24;;;;;;;;;;;;;;;19.59;50.49;99994.73;2250855;76;50778;-77
2022/09/18 12:37:40;;;;;;;;;;;;;;;19.57;50.51;99974.50;2310111;75;51642;-78
2022/09/18 12:40:55;;;;;;;;;;;;;;;19.58;50.45;99979.67;2300397;76;50358;-77
2022/09/18 12:44:02;;;;;;;;;;;;;;;19.60;50.42;99974.12;2255767;78;52672;-77
2022/09/18 12:47:08;;;;;;;;;;;;;;;19.63;50.29;99973.70;2282996;76;51592;-77
2022/09/18 12:50:14;;;;;;;;;;;;;;;19.59;50.36;99967.90;2279545;76;51581;-78
2022/09/18 12:53:29;;;;;;;;;;;;;;;19.58;50.40;99956.05;2279199;77;51494;-78
2022/09/18 12:56:38;;;;;;;;;;;;;;;19.57;50.44;99949.01;2297516;76;52689;-77
2022/09/18 12:59:53;;;;;;;;;;;;;;;19.53;50.45;99945.11;2279569;76;51407;-77
2022/09/18 13:02:56;;;;;;;;;;;;;;;19.54;50.43;99941.38;2279858;77;22295;-77
2022/09/18 13:06:19;;;;;;;;;;;;;;;19.64;50.34;99940.45;2312886;75;51517;-77
2022/09/18 13:09:21;;;;;;;;;;;;;;;19.67;50.28;99941.92;2304860;74;22501;-77
2022/09/18 13:12:31;;;;;;;;;;;;;;;19.65;50.31;99939.92;2279297;78;50689;-77
2022/09/18 13:15:37;;;;;;;;;;;;;;;19.65;50.29;99945.29;2279087;78;50787;-78
2022/09/18 13:18:49;;;;;;;;;;;;;;;19.65;50.29;99942.61;2279751;76;50528;-77
2022/09/18 13:21:51;;;;;;;;;;;;;;;19.62;50.37;99958.61;2279941;75;50889;-78
2022/09/18 13:24:54;;;;;;;;;;;;;;;19.56;50.38;99961.61;2279060;78;50325;-78
2022/09/18 13:27:55;;;;;;;;;;;;;;;19.51;50.42;99955.21;2279403;78;50807;-77
2022/09/18 13:31:15;;;;;;;;;;;;;;;19.48;50.55;99958.31;2288106;76;50711;-79
2022/09/18 13:34:17;;;;;;;;;;;;;;;19.50;50.46;99954.91;2360812;74;50267;-77
2022/09/18 13:37:21;;;;;;;;;;;;;;;19.50;50.50;99953.58;2374400;75;50326;-77
2022/09/18 13:40:23;;;;;;;;;;;;;;;19.55;50.45;99947.89;2374687;74;22307;-77
2022/09/18 13:43:32;;;;;;;;;;;;;;;19.61;50.41;99949.44;2374205;75;50402;-77
2022/09/18 13:46:38;;;;;;;;;;;;;;;19.59;50.30;99955.82;2349086;75;49575;-78
2022/09/18 13:49:50;;;;;;;;;;;;;;;19.59;50.39;99956.34;2374471;75;51499;-77
2022/09/18 13:52:55;;;;;;;;;;;;;;;19.57;50.31;99949.01;2374356;75;51511;-77
2022/09/18 13:55:57;;;;;;;;;;;;;;;19.53;50.44;99949.95;2374372;74;50667;-78
2022/09/18 13:58:59;;;;;;;;;;;;;;;19.51;50.40;99948.50;2376586;75;50074;-77
2022/09/18 14:02:01;;;;;;;;;;;;;;;19.49;50.50;99951.91;2353249;75;50345;-77
2022/09/18 14:05:04;;;;;;;;;;;;;;;19.46;50.57;99946.44;2297776;76;51478;-78
2022/09/18 14:08:09;;;;;;;;;;;;;;;19.46;50.47;99947.77;2317524;76;51508;-78
2022/09/18 14:11:11;;;;;;;;;;;;;;;19.46;50.53;99942.93;2318475;76;50497;-77
2022/09/18 14:14:14;;;;;;;;;;;;;;;19.45;50.51;99954.70;2317718;76;50365;-78
2022/09/18 14:17:16;;;;;;;;;;;;;;;19.44;50.45;99947.67;2317808;76;52650;-78
2022/09/18 14:20:19;;;;;;;;;;;;;;;19.46;50.44;99938.91;2317971;76;52405;-78
2022/09/18 14:23:34;;;;;;;;;;;;;;;19.47;50.42;99947.25;2319649;76;50975;-78
2022/09/18 14:26:38;;;;;;;;;;;;;;;19.46;50.44;99949.12;2317828;76;50702;-78
2022/09/18 14:29:39;;;;;;;;;;;;;;;19.48;50.38;99944.90;2317961;76;50816;-77
2022/09/18 14:32:41;;;;;;;;;;;;;;;19.50;50.42;99957.08;2327605;75;50124;-78
2022/09/18 14:35:57;;;;;;;;;;;;;;;19.51;50.36;99953.88;2310470;76;51458;-78
2022/09/18 14:38:58;;;;;;;;;;;;;;;19.52;50.23;99963.56;2287668;77;51429;-78
2022/09/18 14:42:02;;;;;;;;;;;;;;;19.53;50.31;99955.84;2327409;75;51483;-78
2022/09/18 14:45:14;;;;;;;;;;;;;;;19.55;50.26;99959.97;2286104;77;51473;-78
2022/09/18 14:48:20;;;;;;;;;;;;;;;19.56;50.19;99951.39;2262359;77;51033;-78
2022/09/18 14:51:22;;;;;;;;;;;;;;;19.53;50.23;99947.79;2287192;78;51431;-78
2022/09/18 14:54:24;;;;;;;;;;;;;;;19.54;50.20;99944.06;2286814;78;50404;-78
2022/09/18 14:57:27;;;;;;;;;;;;;;;19.53;50.23;99951.30;2287304;78;50806;-78
2022/09/18 15:00:29;;;;;;;;;;;;;;;19.52;50.26;99952.34;2286733;77;51054;-77
2022/09/18 15:03:35;;;;;;;;;;;;;;;19.54;50.22;99952.11;2296681;76;51533;-78
2022/09/18 15:06:38;;;;;;;;;;;;;;;19.52;50.24;99952.34;2306191;76;50479;-75
2022/09/18 15:09:39;;;;;;;;;;;;;;;19.51;50.26;99947.16;2317725;76;51565;-78
2022/09/18 15:12:41;;;;;;;;;;;;;;;19.54;50.17;99946.75;2319621;76;52562;-78
2022/09/18 15:15:44;;;;;;;;;;;;;;;19.54;50.13;99947.56;2317425;76;50917;-78
2022/09/18 15:18:45;;;;;;;;;;;;;;;19.47;50.30;99943.23;2318915;76;50767;-77
2022/09/18 15:21:47;;;;;;;;;;;;;;;19.50;50.30;99938.30;2318411;76;51710;-78
2022/09/18 15:24:49;;;;;;;;;;;;;;;19.57;50.16;99939.62;2283873;76;50164;-79
2022/09/18 15:27:51;;;;;;;;;;;;;;;19.58;50.17;99923.84;2318263;76;50462;-77
2022/09/18 15:30:56;;;;;;;;;;;;;;;19.56;50.31;99925.91;2318221;76;49687;-78
2022/09/18 15:33:58;;;;;;;;;;;;;;;19.57;50.33;99928.88;2333457;75;22577;-76
2022/09/18 15:37:01;;;;;;;;;;;;;;;19.55;50.35;99926.42;2288167;75;51445;-78
2022/09/18 15:40:04;;;;;;;;;;;;;;;19.55;50.41;99925.61;2297764;76;51586;-79
2022/09/18 15:43:06;;;;;;;;;;;;;;;19.57;50.37;99919.48;2297153;77;51434;-78
2022/09/18 15:46:08;;;;;;;;;;;;;;;19.57;50.35;99923.52;2297305;77;50790;-77
2022/09/18 15:49:26;;;;;;;;;;;;;;;19.55;50.41;99921.06;2273913;77;51570;-78
2022/09/18 15:52:38;;;;;;;;;;;;;;;19.51;50.46;99915.78;2297306;76;50760;-79